sensor_id;sensor_type;location;lat;lon;timestamp;temperature;humidity
63283;DHT22;49407;51.388;0.048;2022-09-17T00:01:58;11.40;63.30
63283;DHT22;49407;51.388;0.048;2022-09-17T00:04:25;11.40;63.80
63283;DHT22;49407;51.388;0.048;2022-09-17T00:06:53;11.30;63.60
63283;DHT22;49407;51.388;0.048;2022-09-17T00:09:20;11.40;63.70
63283;DHT22;49407;51.388;0.048;2022-09-17T00:11:47;11.30;63.80
63283;DHT22;49407;51.388;0.048;2022-09-17T00:14:16;11.40;64.00
63283;DHT22;49407;51.388;0.048;2022-09-17T00:16:45;11.40;64.10
63283;DHT22;49407;51.388;0.048;2022-09-17T00:19:16;11.40;63.90
63283;DHT22;49407;51.388;0.048;2022-09-17T00:21:43;11.40;64.20
63283;DHT22;49407;51.388;0.048;2022-09-17T00:24:12;11.40;64.40
63283;DHT22;49407;51.388;0.048;2022-09-17T00:26:39;11.30;64.40
63283;DHT22;49407;51.388;0.048;2022-09-17T00:32:11;11.30;64.40
63283;DHT22;49407;51.388;0.048;2022-09-17T00:34:38;11.20;64.30
63283;DHT22;49407;51.388;0.048;2022-09-17T00:37:04;11.20;64.30
63283;DHT22;49407;51.388;0.048;2022-09-17T00:39:52;11.10;64.20
63283;DHT22;49407;51.388;0.048;2022-09-17T00:42:21;11.10;64.70
63283;DHT22;49407;51.388;0.048;2022-09-17T00:44:50;11.10;64.60
63283;DHT22;49407;51.388;0.048;2022-09-17T00:47:34;10.90;64.80
63283;DHT22;49407;51.388;0.048;2022-09-17T00:53:16;10.80;65.30
63283;DHT22;49407;51.388;0.048;2022-09-17T00:56:08;10.80;65.60
63283;DHT22;49407;51.388;0.048;2022-09-17T00:58:39;10.80;65.50
63283;DHT22;49407;51.388;0.048;2022-09-17T01:01:07;10.80;65.60
63283;DHT22;49407;51.388;0.048;2022-09-17T01:03:34;10.80;65.90
63283;DHT22;49407;51.388;0.048;2022-09-17T01:17:13;10.80;65.70
63283;DHT22;49407;51.388;0.048;2022-09-17T01:25:47;10.70;65.90
63283;DHT22;49407;51.388;0.048;2022-09-17T01:31:07;10.60;65.90
63283;DHT22;49407;51.388;0.048;2022-09-17T01:42:12;10.50;67.00
63283;DHT22;49407;51.388;0.048;2022-09-17T01:44:49;10.50;67.20
63283;DHT22;49407;51.388;0.048;2022-09-17T01:47:37;10.50;67.10
63283;DHT22;49407;51.388;0.048;2022-09-17T01:50:10;10.50;67.20
63283;DHT22;49407;51.388;0.048;2022-09-17T01:52:40;10.50;67.10
63283;DHT22;49407;51.388;0.048;2022-09-17T01:55:12;10.40;67.00
63283;DHT22;49407;51.388;0.048;2022-09-17T02:03:11;10.30;66.90
63283;DHT22;49407;51.388;0.048;2022-09-17T02:06:12;10.20;66.90
63283;DHT22;49407;51.388;0.048;2022-09-17T02:09:03;10.10;66.90
63283;DHT22;49407;51.388;0.048;2022-09-17T02:11:33;10.00;67.30
63283;DHT22;49407;51.388;0.048;2022-09-17T02:14:06;10.00;67.50
63283;DHT22;49407;51.388;0.048;2022-09-17T02:16:36;9.90;67.40
63283;DHT22;49407;51.388;0.048;2022-09-17T02:19:04;9.90;67.50
63283;DHT22;49407;51.388;0.048;2022-09-17T02:24:26;9.80;67.70
63283;DHT22;49407;51.388;0.048;2022-09-17T02:27:04;9.80;67.80
63283;DHT22;49407;51.388;0.048;2022-09-17T02:29:41;9.70;67.80
63283;DHT22;49407;51.388;0.048;2022-09-17T02:32:10;9.70;67.90
63283;DHT22;49407;51.388;0.048;2022-09-17T02:34:37;9.60;67.80
63283;DHT22;49407;51.388;0.048;2022-09-17T02:37:05;9.60;67.90
63283;DHT22;49407;51.388;0.048;2022-09-17T02:39:36;9.50;67.90
63283;DHT22;49407;51.388;0.048;2022-09-17T02:42:07;9.50;68.10
63283;DHT22;49407;51.388;0.048;2022-09-17T02:59:09;9.20;69.00
63283;DHT22;49407;51.388;0.048;2022-09-17T03:04:10;9.10;69.30
63283;DHT22;49407;51.388;0.048;2022-09-17T03:06:39;9.10;69.90
63283;DHT22;49407;51.388;0.048;2022-09-17T03:09:08;9.10;69.90
63283;DHT22;49407;51.388;0.048;2022-09-17T03:11:35;9.10;70.00
63283;DHT22;49407;51.388;0.048;2022-09-17T03:14:02;9.10;70.10
63283;DHT22;49407;51.388;0.048;2022-09-17T03:16:30;9.10;70.20
63283;DHT22;49407;51.388;0.048;2022-09-17T03:18:57;9.10;70.10
63283;DHT22;49407;51.388;0.048;2022-09-17T03:21:24;9.10;70.10
63283;DHT22;49407;51.388;0.048;2022-09-17T03:23:51;9.10;70.30
63283;DHT22;49407;51.388;0.048;2022-09-17T03:26:18;9.00;70.20
63283;DHT22;49407;51.388;0.048;2022-09-17T03:28:47;9.00;70.20
63283;DHT22;49407;51.388;0.048;2022-09-17T03:31:14;9.00;70.20
63283;DHT22;49407;51.388;0.048;2022-09-17T03:33:41;8.90;70.70
63283;DHT22;49407;51.388;0.048;2022-09-17T03:36:08;8.90;70.10
63283;DHT22;49407;51.388;0.048;2022-09-17T03:38:36;8.80;70.30
63283;DHT22;49407;51.388;0.048;2022-09-17T03:41:05;8.80;70.40
63283;DHT22;49407;51.388;0.048;2022-09-17T03:43:35;8.80;70.50
63283;DHT22;49407;51.388;0.048;2022-09-17T03:46:02;8.70;70.70
63283;DHT22;49407;51.388;0.048;2022-09-17T03:48:30;8.70;71.20
63283;DHT22;49407;51.388;0.048;2022-09-17T03:50:57;8.70;70.70
63283;DHT22;49407;51.388;0.048;2022-09-17T03:53:24;8.70;70.70
63283;DHT22;49407;51.388;0.048;2022-09-17T03:55:51;8.70;70.80
63283;DHT22;49407;51.388;0.048;2022-09-17T03:58:18;8.70;71.10
63283;DHT22;49407;51.388;0.048;2022-09-17T04:03:49;8.60;71.40
63283;DHT22;49407;51.388;0.048;2022-09-17T04:06:16;8.60;71.40
63283;DHT22;49407;51.388;0.048;2022-09-17T04:08:43;8.60;71.50
63283;DHT22;49407;51.388;0.048;2022-09-17T04:11:10;8.60;71.50
63283;DHT22;49407;51.388;0.048;2022-09-17T04:13:37;8.60;71.70
63283;DHT22;49407;51.388;0.048;2022-09-17T04:16:04;8.50;71.60
63283;DHT22;49407;51.388;0.048;2022-09-17T04:18:31;8.50;71.80
63283;DHT22;49407;51.388;0.048;2022-09-17T04:20:58;8.50;72.00
63283;DHT22;49407;51.388;0.048;2022-09-17T04:23:25;8.50;72.10
63283;DHT22;49407;51.388;0.048;2022-09-17T04:25:52;8.50;72.20
63283;DHT22;49407;51.388;0.048;2022-09-17T04:28:19;8.50;72.40
63283;DHT22;49407;51.388;0.048;2022-09-17T04:33:53;8.40;72.40
63283;DHT22;49407;51.388;0.048;2022-09-17T04:36:20;8.40;72.50
63283;DHT22;49407;51.388;0.048;2022-09-17T04:38:48;8.30;73.00
63283;DHT22;49407;51.388;0.048;2022-09-17T04:41:15;8.30;72.90
63283;DHT22;49407;51.388;0.048;2022-09-17T04:43:42;8.30;73.20
63283;DHT22;49407;51.388;0.048;2022-09-17T04:46:09;8.30;73.30
63283;DHT22;49407;51.388;0.048;2022-09-17T04:48:37;8.30;73.20
63283;DHT22;49407;51.388;0.048;2022-09-17T04:51:04;8.30;73.20
63283;DHT22;49407;51.388;0.048;2022-09-17T04:53:31;8.30;73.40
63283;DHT22;49407;51.388;0.048;2022-09-17T04:55:58;8.30;73.40
63283;DHT22;49407;51.388;0.048;2022-09-17T04:58:25;8.30;73.50
63283;DHT22;49407;51.388;0.048;2022-09-17T05:00:51;8.20;73.60
63283;DHT22;49407;51.388;0.048;2022-09-17T05:03:18;8.20;74.00
63283;DHT22;49407;51.388;0.048;2022-09-17T05:05:45;8.20;74.00
63283;DHT22;49407;51.388;0.048;2022-09-17T05:08:12;8.20;73.90
63283;DHT22;49407;51.388;0.048;2022-09-17T05:13:43;8.10;73.90
63283;DHT22;49407;51.388;0.048;2022-09-17T05:16:10;8.10;74.00
63283;DHT22;49407;51.388;0.048;2022-09-17T05:18:57;8.00;74.30
63283;DHT22;49407;51.388;0.048;2022-09-17T05:21:25;7.90;74.30
63283;DHT22;49407;51.388;0.048;2022-09-17T05:23:51;7.90;74.90
63283;DHT22;49407;51.388;0.048;2022-09-17T05:26:18;8.00;74.90
63283;DHT22;49407;51.388;0.048;2022-09-17T05:31:52;8.00;75.70
63283;DHT22;49407;51.388;0.048;2022-09-17T05:34:19;7.90;75.50
63283;DHT22;49407;51.388;0.048;2022-09-17T05:36:46;7.90;75.50
63283;DHT22;49407;51.388;0.048;2022-09-17T05:42:18;7.90;75.70
63283;DHT22;49407;51.388;0.048;2022-09-17T05:44:45;8.00;75.80
63283;DHT22;49407;51.388;0.048;2022-09-17T05:47:12;7.90;75.70
63283;DHT22;49407;51.388;0.048;2022-09-17T05:52:44;7.90;76.30
63283;DHT22;49407;51.388;0.048;2022-09-17T05:55:11;8.00;76.40
63283;DHT22;49407;51.388;0.048;2022-09-17T05:57:38;8.00;76.50
63283;DHT22;49407;51.388;0.048;2022-09-17T06:00:06;8.00;76.90
63283;DHT22;49407;51.388;0.048;2022-09-17T06:02:38;8.00;77.10
63283;DHT22;49407;51.388;0.048;2022-09-17T06:05:05;8.10;77.30
63283;DHT22;49407;51.388;0.048;2022-09-17T06:07:34;8.10;77.20
63283;DHT22;49407;51.388;0.048;2022-09-17T06:10:06;8.10;77.20
63283;DHT22;49407;51.388;0.048;2022-09-17T06:12:35;8.10;77.30
63283;DHT22;49407;51.388;0.048;2022-09-17T06:15:05;8.20;77.20
63283;DHT22;49407;51.388;0.048;2022-09-17T06:17:34;8.20;77.30
63283;DHT22;49407;51.388;0.048;2022-09-17T06:20:03;8.20;77.30
63283;DHT22;49407;51.388;0.048;2022-09-17T06:22:32;8.20;77.40
63283;DHT22;49407;51.388;0.048;2022-09-17T06:24:59;8.20;77.30
63283;DHT22;49407;51.388;0.048;2022-09-17T06:27:31;8.30;77.40
63283;DHT22;49407;51.388;0.048;2022-09-17T06:30:00;8.30;78.00
63283;DHT22;49407;51.388;0.048;2022-09-17T06:32:27;8.40;78.20
63283;DHT22;49407;51.388;0.048;2022-09-17T06:34:54;8.40;78.20
63283;DHT22;49407;51.388;0.048;2022-09-17T06:37:30;8.50;78.30
63283;DHT22;49407;51.388;0.048;2022-09-17T06:39:59;8.60;78.30
63283;DHT22;49407;51.388;0.048;2022-09-17T06:42:27;8.60;78.30
63283;DHT22;49407;51.388;0.048;2022-09-17T06:44:55;8.70;78.30
63283;DHT22;49407;51.388;0.048;2022-09-17T06:47:25;8.80;78.70
63283;DHT22;49407;51.388;0.048;2022-09-17T06:49:52;8.90;78.70
63283;DHT22;49407;51.388;0.048;2022-09-17T06:52:20;8.90;78.50
63283;DHT22;49407;51.388;0.048;2022-09-17T06:54:47;9.00;78.40
63283;DHT22;49407;51.388;0.048;2022-09-17T06:57:13;9.10;78.20
63283;DHT22;49407;51.388;0.048;2022-09-17T06:59:41;9.20;78.40
63283;DHT22;49407;51.388;0.048;2022-09-17T07:02:08;9.30;78.30
63283;DHT22;49407;51.388;0.048;2022-09-17T07:04:35;9.50;78.30
63283;DHT22;49407;51.388;0.048;2022-09-17T07:07:02;9.60;78.00
63283;DHT22;49407;51.388;0.048;2022-09-17T07:09:30;9.80;77.90
63283;DHT22;49407;51.388;0.048;2022-09-17T07:11:57;10.00;77.90
63283;DHT22;49407;51.388;0.048;2022-09-17T07:14:24;10.10;77.80
63283;DHT22;49407;51.388;0.048;2022-09-17T07:16:51;10.30;77.70
63283;DHT22;49407;51.388;0.048;2022-09-17T07:19:18;10.50;77.50
63283;DHT22;49407;51.388;0.048;2022-09-17T07:21:47;10.60;77.20
63283;DHT22;49407;51.388;0.048;2022-09-17T07:24:14;10.80;77.00
63283;DHT22;49407;51.388;0.048;2022-09-17T07:26:41;10.90;76.70
63283;DHT22;49407;51.388;0.048;2022-09-17T07:29:13;11.10;77.10
63283;DHT22;49407;51.388;0.048;2022-09-17T07:31:40;11.30;76.20
63283;DHT22;49407;51.388;0.048;2022-09-17T07:34:09;11.40;76.00
63283;DHT22;49407;51.388;0.048;2022-09-17T07:36:36;11.60;75.70
63283;DHT22;49407;51.388;0.048;2022-09-17T07:39:04;11.70;75.40
63283;DHT22;49407;51.388;0.048;2022-09-17T07:41:31;11.80;75.10
63283;DHT22;49407;51.388;0.048;2022-09-17T07:44:00;11.90;75.00
63283;DHT22;49407;51.388;0.048;2022-09-17T07:46:28;12.00;74.50
63283;DHT22;49407;51.388;0.048;2022-09-17T07:49:23;12.10;74.50
63283;DHT22;49407;51.388;0.048;2022-09-17T07:51:50;12.30;73.90
63283;DHT22;49407;51.388;0.048;2022-09-17T07:54:17;12.40;73.30
63283;DHT22;49407;51.388;0.048;2022-09-17T07:56:44;12.40;73.00
63283;DHT22;49407;51.388;0.048;2022-09-17T07:59:11;12.50;72.90
63283;DHT22;49407;51.388;0.048;2022-09-17T08:01:38;12.50;72.80
63283;DHT22;49407;51.388;0.048;2022-09-17T08:04:06;12.70;73.20
63283;DHT22;49407;51.388;0.048;2022-09-17T08:06:36;12.80;72.50
63283;DHT22;49407;51.388;0.048;2022-09-17T08:09:04;12.80;72.30
63283;DHT22;49407;51.388;0.048;2022-09-17T08:11:32;13.00;72.20
63283;DHT22;49407;51.388;0.048;2022-09-17T08:14:18;13.20;72.10
63283;DHT22;49407;51.388;0.048;2022-09-17T08:16:45;13.30;71.70
63283;DHT22;49407;51.388;0.048;2022-09-17T08:22:20;13.60;70.50
63283;DHT22;49407;51.388;0.048;2022-09-17T08:24:46;13.70;70.50
63283;DHT22;49407;51.388;0.048;2022-09-17T08:27:13;13.80;70.10
63283;DHT22;49407;51.388;0.048;2022-09-17T08:29:40;13.90;70.00
63283;DHT22;49407;51.388;0.048;2022-09-17T08:32:07;14.10;69.70
63283;DHT22;49407;51.388;0.048;2022-09-17T08:34:34;14.20;68.90
63283;DHT22;49407;51.388;0.048;2022-09-17T08:37:02;14.30;68.70
63283;DHT22;49407;51.388;0.048;2022-09-17T08:39:29;14.30;68.50
63283;DHT22;49407;51.388;0.048;2022-09-17T08:47:11;14.60;66.90
63283;DHT22;49407;51.388;0.048;2022-09-17T08:49:49;14.80;66.70
63283;DHT22;49407;51.388;0.048;2022-09-17T09:00:33;15.20;62.30
63283;DHT22;49407;51.388;0.048;2022-09-17T09:05:50;15.40;60.70
63283;DHT22;49407;51.388;0.048;2022-09-17T09:08:40;15.50;60.90
63283;DHT22;49407;51.388;0.048;2022-09-17T09:11:17;15.60;60.50
63283;DHT22;49407;51.388;0.048;2022-09-17T09:13:54;15.70;59.40
63283;DHT22;49407;51.388;0.048;2022-09-17T09:16:25;15.80;59.60
63283;DHT22;49407;51.388;0.048;2022-09-17T09:19:00;15.90;59.20
63283;DHT22;49407;51.388;0.048;2022-09-17T09:21:40;16.00;58.10
63283;DHT22;49407;51.388;0.048;2022-09-17T09:24:25;16.00;57.70
63283;DHT22;49407;51.388;0.048;2022-09-17T09:27:17;16.10;57.80
63283;DHT22;49407;51.388;0.048;2022-09-17T09:30:07;16.10;56.70
63283;DHT22;49407;51.388;0.048;2022-09-17T09:35:27;16.20;55.90
63283;DHT22;49407;51.388;0.048;2022-09-17T09:38:31;16.20;55.70
63283;DHT22;49407;51.388;0.048;2022-09-17T09:41:09;16.30;56.20
63283;DHT22;49407;51.388;0.048;2022-09-17T09:43:47;16.50;56.40
63283;DHT22;49407;51.388;0.048;2022-09-17T09:49:56;17.00;55.50
63283;DHT22;49407;51.388;0.048;2022-09-17T09:58:02;17.50;54.00
63283;DHT22;49407;51.388;0.048;2022-09-17T10:00:38;17.70;53.20
63283;DHT22;49407;51.388;0.048;2022-09-17T10:05:39;18.20;52.10
63283;DHT22;49407;51.388;0.048;2022-09-17T10:08:10;18.40;51.70
63283;DHT22;49407;51.388;0.048;2022-09-17T10:10:53;18.60;51.40
63283;DHT22;49407;51.388;0.048;2022-09-17T10:13:20;18.80;50.90
63283;DHT22;49407;51.388;0.048;2022-09-17T10:15:47;19.10;50.80
63283;DHT22;49407;51.388;0.048;2022-09-17T10:18:24;19.30;49.60
63283;DHT22;49407;51.388;0.048;2022-09-17T10:20:57;19.30;48.70
63283;DHT22;49407;51.388;0.048;2022-09-17T10:23:27;19.40;49.10
63283;DHT22;49407;51.388;0.048;2022-09-17T10:25:54;19.60;49.10
63283;DHT22;49407;51.388;0.048;2022-09-17T10:31:04;19.80;47.80
63283;DHT22;49407;51.388;0.048;2022-09-17T10:33:38;19.90;47.60
63283;DHT22;49407;51.388;0.048;2022-09-17T10:36:12;19.90;47.10
63283;DHT22;49407;51.388;0.048;2022-09-17T10:38:43;20.00;47.40
63283;DHT22;49407;51.388;0.048;2022-09-17T10:41:20;20.20;47.10
63283;DHT22;49407;51.388;0.048;2022-09-17T10:43:51;20.30;47.00
63283;DHT22;49407;51.388;0.048;2022-09-17T10:46:25;20.50;46.40
63283;DHT22;49407;51.388;0.048;2022-09-17T11:06:39;21.30;44.70
63283;DHT22;49407;51.388;0.048;2022-09-17T11:20:02;22.00;43.10
63283;DHT22;49407;51.388;0.048;2022-09-17T11:25:26;22.10;43.20
63283;DHT22;49407;51.388;0.048;2022-09-17T11:31:20;22.60;42.20
63283;DHT22;49407;51.388;0.048;2022-09-17T11:42:09;23.90;39.50
63283;DHT22;49407;51.388;0.048;2022-09-17T11:44:50;24.10;39.90
63283;DHT22;49407;51.388;0.048;2022-09-17T11:47:34;24.20;38.90
63283;DHT22;49407;51.388;0.048;2022-09-17T11:53:08;24.50;37.70
63283;DHT22;49407;51.388;0.048;2022-09-17T11:55:46;24.70;38.20
63283;DHT22;49407;51.388;0.048;2022-09-17T12:01:12;25.20;38.30
63283;DHT22;49407;51.388;0.048;2022-09-17T12:03:49;25.30;37.10
63283;DHT22;49407;51.388;0.048;2022-09-17T12:06:22;25.60;37.50
63283;DHT22;49407;51.388;0.048;2022-09-17T12:09:15;25.80;37.40
63283;DHT22;49407;51.388;0.048;2022-09-17T12:12:04;26.10;37.30
63283;DHT22;49407;51.388;0.048;2022-09-17T12:17:16;26.30;36.90
63283;DHT22;49407;51.388;0.048;2022-09-17T12:20:01;26.50;37.10
63283;DHT22;49407;51.388;0.048;2022-09-17T12:22:33;26.70;36.80
63283;DHT22;49407;51.388;0.048;2022-09-17T12:25:11;26.90;36.50
63283;DHT22;49407;51.388;0.048;2022-09-17T12:27:52;27.00;36.60
63283;DHT22;49407;51.388;0.048;2022-09-17T12:30:32;27.00;36.30
63283;DHT22;49407;51.388;0.048;2022-09-17T12:33:22;27.20;36.40
63283;DHT22;49407;51.388;0.048;2022-09-17T12:36:12;27.30;35.50
63283;DHT22;49407;51.388;0.048;2022-09-17T12:42:14;27.50;34.50
63283;DHT22;49407;51.388;0.048;2022-09-17T12:50:57;28.10;33.60
63283;DHT22;49407;51.388;0.048;2022-09-17T12:56:43;28.40;33.30
63283;DHT22;49407;51.388;0.048;2022-09-17T12:59:15;28.60;33.10
63283;DHT22;49407;51.388;0.048;2022-09-17T13:13:23;29.40;31.70
63283;DHT22;49407;51.388;0.048;2022-09-17T13:19:38;29.40;31.20
63283;DHT22;49407;51.388;0.048;2022-09-17T13:22:17;29.60;31.20
63283;DHT22;49407;51.388;0.048;2022-09-17T13:24:45;29.50;30.70
63283;DHT22;49407;51.388;0.048;2022-09-17T13:27:23;29.60;31.00
63283;DHT22;49407;51.388;0.048;2022-09-17T13:40:28;29.00;30.60
63283;DHT22;49407;51.388;0.048;2022-09-17T13:43:07;29.10;31.10
63283;DHT22;49407;51.388;0.048;2022-09-17T13:48:29;29.70;30.40
63283;DHT22;49407;51.388;0.048;2022-09-17T13:53:58;29.90;30.20
63283;DHT22;49407;51.388;0.048;2022-09-17T13:56:42;29.90;30.20
63283;DHT22;49407;51.388;0.048;2022-09-17T13:59:19;30.10;30.00
63283;DHT22;49407;51.388;0.048;2022-09-17T14:21:19;30.40;29.10
63283;DHT22;49407;51.388;0.048;2022-09-17T14:23:55;30.20;29.10
63283;DHT22;49407;51.388;0.048;2022-09-17T14:32:17;29.60;29.80
63283;DHT22;49407;51.388;0.048;2022-09-17T14:34:48;29.60;29.60
63283;DHT22;49407;51.388;0.048;2022-09-17T14:37:18;29.30;29.50
63283;DHT22;49407;51.388;0.048;2022-09-17T14:39:48;28.90;29.90
63283;DHT22;49407;51.388;0.048;2022-09-17T14:42:19;28.50;30.00
63283;DHT22;49407;51.388;0.048;2022-09-17T14:44:57;28.40;30.00
63283;DHT22;49407;51.388;0.048;2022-09-17T14:47:26;28.50;30.00
63283;DHT22;49407;51.388;0.048;2022-09-17T14:52:50;28.00;30.50
63283;DHT22;49407;51.388;0.048;2022-09-17T14:55:18;27.70;31.00
63283;DHT22;49407;51.388;0.048;2022-09-17T14:57:54;27.40;31.30
63283;DHT22;49407;51.388;0.048;2022-09-17T15:03:27;27.50;31.20
63283;DHT22;49407;51.388;0.048;2022-09-17T15:05:54;27.50;31.10
63283;DHT22;49407;51.388;0.048;2022-09-17T15:08:23;27.70;31.80
63283;DHT22;49407;51.388;0.048;2022-09-17T15:13:27;28.50;30.40
63283;DHT22;49407;51.388;0.048;2022-09-17T15:18:35;29.60;29.80
63283;DHT22;49407;51.388;0.048;2022-09-17T15:21:09;29.90;29.50
63283;DHT22;49407;51.388;0.048;2022-09-17T15:23:37;30.10;29.20
63283;DHT22;49407;51.388;0.048;2022-09-17T15:26:04;30.40;29.20
63283;DHT22;49407;51.388;0.048;2022-09-17T15:28:41;30.70;28.90
63283;DHT22;49407;51.388;0.048;2022-09-17T15:31:16;31.00;28.40
63283;DHT22;49407;51.388;0.048;2022-09-17T15:33:44;31.00;28.40
63283;DHT22;49407;51.388;0.048;2022-09-17T15:36:31;31.10;28.20
63283;DHT22;49407;51.388;0.048;2022-09-17T15:39:29;31.30;28.10
63283;DHT22;49407;51.388;0.048;2022-09-17T15:41:57;31.50;28.00
63283;DHT22;49407;51.388;0.048;2022-09-17T15:44:25;31.50;28.10
63283;DHT22;49407;51.388;0.048;2022-09-17T15:50:16;31.50;28.20
63283;DHT22;49407;51.388;0.048;2022-09-17T15:52:44;31.40;28.00
63283;DHT22;49407;51.388;0.048;2022-09-17T15:55:35;31.30;28.10
63283;DHT22;49407;51.388;0.048;2022-09-17T15:58:16;31.20;28.10
63283;DHT22;49407;51.388;0.048;2022-09-17T16:00:45;31.20;28.20
63283;DHT22;49407;51.388;0.048;2022-09-17T16:08:49;31.00;28.30
63283;DHT22;49407;51.388;0.048;2022-09-17T16:11:21;30.20;28.30
63283;DHT22;49407;51.388;0.048;2022-09-17T16:13:49;29.50;28.80
63283;DHT22;49407;51.388;0.048;2022-09-17T16:16:18;28.40;29.20
63283;DHT22;49407;51.388;0.048;2022-09-17T16:18:47;27.30;29.80
63283;DHT22;49407;51.388;0.048;2022-09-17T16:21:15;26.30;30.70
63283;DHT22;49407;51.388;0.048;2022-09-17T16:23:43;25.40;31.20
63283;DHT22;49407;51.388;0.048;2022-09-17T16:26:30;24.70;32.00
63283;DHT22;49407;51.388;0.048;2022-09-17T16:29:06;24.00;33.10
63283;DHT22;49407;51.388;0.048;2022-09-17T16:31:36;23.40;33.70
63283;DHT22;49407;51.388;0.048;2022-09-17T16:34:03;23.10;34.20
63283;DHT22;49407;51.388;0.048;2022-09-17T16:36:30;22.70;34.60
63283;DHT22;49407;51.388;0.048;2022-09-17T16:42:02;22.00;35.80
63283;DHT22;49407;51.388;0.048;2022-09-17T16:44:29;21.80;36.20
63283;DHT22;49407;51.388;0.048;2022-09-17T16:46:56;21.60;36.70
63283;DHT22;49407;51.388;0.048;2022-09-17T16:49:24;21.40;37.00
63283;DHT22;49407;51.388;0.048;2022-09-17T16:51:50;21.20;37.30
63283;DHT22;49407;51.388;0.048;2022-09-17T16:54:17;21.10;37.50
63283;DHT22;49407;51.388;0.048;2022-09-17T16:56:44;21.00;37.80
63283;DHT22;49407;51.388;0.048;2022-09-17T16:59:11;20.80;38.00
63283;DHT22;49407;51.388;0.048;2022-09-17T17:01:38;20.80;38.30
63283;DHT22;49407;51.388;0.048;2022-09-17T17:04:05;20.60;38.40
63283;DHT22;49407;51.388;0.048;2022-09-17T17:06:32;20.50;38.70
63283;DHT22;49407;51.388;0.048;2022-09-17T17:09:01;20.40;38.90
63283;DHT22;49407;51.388;0.048;2022-09-17T17:11:28;20.30;39.10
63283;DHT22;49407;51.388;0.048;2022-09-17T17:13:54;20.20;39.20
63283;DHT22;49407;51.388;0.048;2022-09-17T17:16:22;20.10;39.40
63283;DHT22;49407;51.388;0.048;2022-09-17T17:18:51;20.00;39.70
63283;DHT22;49407;51.388;0.048;2022-09-17T17:21:19;19.90;40.00
63283;DHT22;49407;51.388;0.048;2022-09-17T17:23:47;19.80;40.20
63283;DHT22;49407;51.388;0.048;2022-09-17T17:26:15;19.70;40.50
63283;DHT22;49407;51.388;0.048;2022-09-17T17:28:47;19.60;40.70
63283;DHT22;49407;51.388;0.048;2022-09-17T17:31:14;19.50;41.20
63283;DHT22;49407;51.388;0.048;2022-09-17T17:33:41;19.40;41.20
63283;DHT22;49407;51.388;0.048;2022-09-17T17:36:08;19.30;41.90
63283;DHT22;49407;51.388;0.048;2022-09-17T17:38:36;19.20;42.60
63283;DHT22;49407;51.388;0.048;2022-09-17T17:41:08;19.10;42.00
63283;DHT22;49407;51.388;0.048;2022-09-17T17:43:36;19.00;42.40
63283;DHT22;49407;51.388;0.048;2022-09-17T17:46:07;18.90;42.60
63283;DHT22;49407;51.388;0.048;2022-09-17T17:48:37;18.70;42.80
63283;DHT22;49407;51.388;0.048;2022-09-17T17:51:08;18.60;42.70
63283;DHT22;49407;51.388;0.048;2022-09-17T17:53:36;18.50;43.00
63283;DHT22;49407;51.388;0.048;2022-09-17T17:56:05;18.50;43.10
63283;DHT22;49407;51.388;0.048;2022-09-17T17:58:32;18.40;43.30
63283;DHT22;49407;51.388;0.048;2022-09-17T18:01:07;18.30;43.40
63283;DHT22;49407;51.388;0.048;2022-09-17T18:03:34;18.20;43.70
63283;DHT22;49407;51.388;0.048;2022-09-17T18:06:04;18.10;43.70
63283;DHT22;49407;51.388;0.048;2022-09-17T18:08:31;18.00;43.90
63283;DHT22;49407;51.388;0.048;2022-09-17T18:11:00;17.90;44.10
63283;DHT22;49407;51.388;0.048;2022-09-17T18:13:29;17.80;44.40
63283;DHT22;49407;51.388;0.048;2022-09-17T18:15:58;17.70;44.60
63283;DHT22;49407;51.388;0.048;2022-09-17T18:18:37;17.60;44.80
63283;DHT22;49407;51.388;0.048;2022-09-17T18:21:12;17.40;45.10
63283;DHT22;49407;51.388;0.048;2022-09-17T18:23:41;17.30;45.40
63283;DHT22;49407;51.388;0.048;2022-09-17T18:26:17;17.20;45.70
63283;DHT22;49407;51.388;0.048;2022-09-17T18:29:05;17.00;46.30
63283;DHT22;49407;51.388;0.048;2022-09-17T18:31:34;16.80;46.70
63283;DHT22;49407;51.388;0.048;2022-09-17T18:36:32;16.60;47.20
63283;DHT22;49407;51.388;0.048;2022-09-17T18:39:03;16.50;47.70
63283;DHT22;49407;51.388;0.048;2022-09-17T18:41:51;16.40;48.10
63283;DHT22;49407;51.388;0.048;2022-09-17T18:44:18;16.30;48.30
63283;DHT22;49407;51.388;0.048;2022-09-17T18:46:47;16.10;48.70
63283;DHT22;49407;51.388;0.048;2022-09-17T18:49:16;16.00;49.10
63283;DHT22;49407;51.388;0.048;2022-09-17T18:51:43;15.90;49.40
63283;DHT22;49407;51.388;0.048;2022-09-17T18:54:10;15.80;49.80
63283;DHT22;49407;51.388;0.048;2022-09-17T18:56:38;15.60;50.20
63283;DHT22;49407;51.388;0.048;2022-09-17T18:59:07;15.60;50.60
63283;DHT22;49407;51.388;0.048;2022-09-17T19:01:34;15.40;51.10
63283;DHT22;49407;51.388;0.048;2022-09-17T19:04:02;15.30;51.50
63283;DHT22;49407;51.388;0.048;2022-09-17T19:06:29;15.20;51.90
63283;DHT22;49407;51.388;0.048;2022-09-17T19:08:59;15.10;52.20
63283;DHT22;49407;51.388;0.048;2022-09-17T19:11:27;15.00;52.70
63283;DHT22;49407;51.388;0.048;2022-09-17T19:13:54;14.90;52.90
63283;DHT22;49407;51.388;0.048;2022-09-17T19:16:21;14.80;53.40
63283;DHT22;49407;51.388;0.048;2022-09-17T19:18:49;14.70;53.80
63283;DHT22;49407;51.388;0.048;2022-09-17T19:21:18;14.60;54.30
63283;DHT22;49407;51.388;0.048;2022-09-17T19:23:49;14.50;55.30
63283;DHT22;49407;51.388;0.048;2022-09-17T19:26:21;14.40;55.00
63283;DHT22;49407;51.388;0.048;2022-09-17T19:28:56;14.20;55.60
63283;DHT22;49407;51.388;0.048;2022-09-17T19:31:24;14.10;56.10
63283;DHT22;49407;51.388;0.048;2022-09-17T19:33:52;14.10;56.00
63283;DHT22;49407;51.388;0.048;2022-09-17T19:36:19;14.10;55.90
63283;DHT22;49407;51.388;0.048;2022-09-17T19:38:47;14.00;55.90
63283;DHT22;49407;51.388;0.048;2022-09-17T19:41:19;13.90;56.50
63283;DHT22;49407;51.388;0.048;2022-09-17T19:43:46;13.80;57.10
63283;DHT22;49407;51.388;0.048;2022-09-17T19:46:16;13.70;57.40
63283;DHT22;49407;51.388;0.048;2022-09-17T19:48:49;13.60;57.70
63283;DHT22;49407;51.388;0.048;2022-09-17T19:51:21;13.50;58.20
63283;DHT22;49407;51.388;0.048;2022-09-17T19:53:49;13.50;57.80
63283;DHT22;49407;51.388;0.048;2022-09-17T19:56:18;13.40;57.70
63283;DHT22;49407;51.388;0.048;2022-09-17T19:58:47;13.30;58.50
63283;DHT22;49407;51.388;0.048;2022-09-17T20:01:14;13.20;59.00
63283;DHT22;49407;51.388;0.048;2022-09-17T20:03:42;13.10;59.30
63283;DHT22;49407;51.388;0.048;2022-09-17T20:06:12;13.00;59.80
63283;DHT22;49407;51.388;0.048;2022-09-17T20:08:47;13.00;60.20
63283;DHT22;49407;51.388;0.048;2022-09-17T20:11:16;12.80;60.70
63283;DHT22;49407;51.388;0.048;2022-09-17T20:13:43;12.80;60.80
63283;DHT22;49407;51.388;0.048;2022-09-17T20:16:16;12.70;61.00
63283;DHT22;49407;51.388;0.048;2022-09-17T20:18:45;12.70;61.00
63283;DHT22;49407;51.388;0.048;2022-09-17T20:21:17;12.70;60.90